Accident, Maryland
Current Conditions -  °F | °C
As of 1:05 AM on Wednesday 26 Nov 2014 (Local Time) from K2G4 Reporting Station
Clear Clear  
Wind Chill: 32°   Ceiling: Unl
Heat Index: 32°   Visibility: 10mi
Dew Point: 30°   Wind: 3mph
Humidity: 93%   Direction: 80°E
Pressure: 30.1"   Gusts: NA
Location:  39.63°N, 79.32°W
Report Text: K2G4 260605Z AUTO 08003KT 10SM CLR 00/M01 A3010 RMK AO1
Loading
Personal Weather Stations






























Interactive Weather Map New forecast layout! Learn more

10-Day Weather Forecast

Advertisements
Track Severe Weather on mobile